createdAt,value
2023-04-25T00:00:26.155Z,84.12
2023-04-25T00:02:54.169Z,83.83
2023-04-25T00:05:24.293Z,83.79
2023-04-25T00:07:52.351Z,84.03
2023-04-25T00:10:20.558Z,83.79
2023-04-25T00:12:48.790Z,83.99
2023-04-25T00:15:18.695Z,83.86
2023-04-25T00:17:46.876Z,84.37
2023-04-25T00:20:14.770Z,84.22
2023-04-25T00:22:42.585Z,84.28
2023-04-25T00:25:10.744Z,84.38
2023-04-25T00:27:40.047Z,84.26
2023-04-25T00:30:08.205Z,84.70
2023-04-25T00:32:37.407Z,84.53
2023-04-25T00:35:05.617Z,84.72
2023-04-25T00:37:33.515Z,84.74
2023-04-25T00:40:01.311Z,84.86
2023-04-25T00:42:30.860Z,84.95
2023-04-25T00:45:00.527Z,85.09
2023-04-25T00:47:29.392Z,84.98
2023-04-25T00:49:58.595Z,85.07
2023-04-25T00:52:26.587Z,85.13
2023-04-25T00:54:54.665Z,85.27
2023-04-25T00:57:22.530Z,85.06
2023-04-25T00:59:52.869Z,84.99
2023-04-25T01:02:21.744Z,84.93
2023-04-25T01:04:49.982Z,84.83
2023-04-25T01:07:19.411Z,84.92
2023-04-25T01:09:47.969Z,84.87
2023-04-25T01:12:16.402Z,84.69
2023-04-25T01:14:44.274Z,84.53
2023-04-25T01:17:12.531Z,84.80
2023-04-25T01:19:40.413Z,84.95
2023-04-25T01:22:11.243Z,85.11
2023-04-25T01:24:39.553Z,84.95
2023-04-25T01:27:07.842Z,84.87
2023-04-25T01:29:37.008Z,85.05
2023-04-25T01:32:06.522Z,85.07
2023-04-25T01:34:34.944Z,85.24
2023-04-25T01:37:03.071Z,85.44
2023-04-25T01:39:32.456Z,85.62
2023-04-25T01:42:02.473Z,85.58
2023-04-25T01:44:31.634Z,85.38
2023-04-25T01:46:59.789Z,85.03
2023-04-25T01:49:27.625Z,85.12
2023-04-25T01:51:55.832Z,84.99
2023-04-25T01:54:23.708Z,85.05
2023-04-25T01:56:53.912Z,84.91
2023-04-25T01:59:23.754Z,84.59
2023-04-25T02:02:06.237Z,84.83
2023-04-25T02:04:35.623Z,84.81
2023-04-25T02:07:05.805Z,84.95
2023-04-25T02:09:44.415Z,84.93
2023-04-25T02:12:15.192Z,84.97
2023-04-25T02:15:03.327Z,84.90
2023-04-25T02:17:40.200Z,84.71
2023-04-25T02:20:08.946Z,84.87
2023-04-25T02:22:36.826Z,84.79
2023-04-25T02:25:08.333Z,84.89
2023-04-25T02:27:37.522Z,84.79
2023-04-25T02:30:07.579Z,85.00
2023-04-25T02:32:36.197Z,85.09
2023-04-25T02:35:04.857Z,85.05
2023-04-25T02:37:33.034Z,84.93
2023-04-25T02:40:00.981Z,84.96
2023-04-25T02:42:29.247Z,84.97
2023-04-25T02:45:00.222Z,84.98
2023-04-25T02:47:28.661Z,84.99
2023-04-25T02:49:56.750Z,85.17
2023-04-25T02:52:24.987Z,84.98
2023-04-25T02:55:00.670Z,85.42
2023-04-25T02:57:30.206Z,85.46
2023-04-25T02:59:58.361Z,85.33
2023-04-25T03:02:27.894Z,85.48
2023-04-25T03:04:56.065Z,85.68
2023-04-25T03:07:24.114Z,85.71
2023-04-25T03:09:52.455Z,85.58
2023-04-25T03:12:21.013Z,85.72
2023-04-25T03:14:48.941Z,85.80
2023-04-25T03:17:17.047Z,85.78
2023-04-25T03:19:46.397Z,85.99
2023-04-25T03:22:14.552Z,86.04
2023-04-25T03:24:42.471Z,86.25
2023-04-25T03:27:10.545Z,86.12
2023-04-25T03:29:38.505Z,86.20
2023-04-25T03:32:07.266Z,86.20
2023-04-25T03:34:35.180Z,86.15
2023-04-25T03:37:04.622Z,86.27
2023-04-25T03:39:37.000Z,86.00
2023-04-25T03:42:05.120Z,86.00
2023-04-25T03:44:33.049Z,86.05
2023-04-25T03:47:01.794Z,86.37
2023-04-25T03:49:30.922Z,86.14
2023-04-25T03:52:05.448Z,86.58
2023-04-25T03:54:40.065Z,86.46
2023-04-25T03:57:20.111Z,86.59
2023-04-25T03:59:47.898Z,86.59
2023-04-25T04:02:17.275Z,86.58
2023-04-25T04:04:45.666Z,86.47
2023-04-25T04:07:15.502Z,91.13
2023-04-25T04:09:46.372Z,91.81
2023-04-25T04:12:19.577Z,92.08
2023-04-25T04:14:47.515Z,88.03
2023-04-25T04:17:15.621Z,87.98
2023-04-25T04:19:43.514Z,85.07
2023-04-25T04:22:16.790Z,84.58
2023-04-25T04:24:47.311Z,83.68
2023-04-25T04:27:20.236Z,80.72
2023-04-25T04:30:08.222Z,83.10
2023-04-25T04:32:40.621Z,83.46
2023-04-25T04:35:09.964Z,83.49
2023-04-25T04:37:39.103Z,82.58
2023-04-25T04:40:09.822Z,81.88
2023-04-25T04:42:46.245Z,80.60
2023-04-25T04:45:32.077Z,80.55
2023-04-25T04:48:12.957Z,81.36
2023-04-25T04:50:57.053Z,80.21
2023-04-25T04:53:44.615Z,80.08
2023-04-25T04:56:51.220Z,80.59
2023-04-25T04:59:37.640Z,80.45
2023-04-25T05:02:18.690Z,81.22
2023-04-25T05:05:05.828Z,81.53
2023-04-25T05:08:06.094Z,79.42
2023-04-25T05:10:47.278Z,81.55
2023-04-25T05:13:33.643Z,80.04
2023-04-25T05:16:21.905Z,78.94
2023-04-25T05:18:54.668Z,81.90
2023-04-25T05:21:35.312Z,81.86
2023-04-25T05:24:35.454Z,81.20
2023-04-25T05:27:21.110Z,79.86
2023-04-25T05:30:21.682Z,80.16
2023-04-25T05:33:08.729Z,80.37
2023-04-25T05:35:36.672Z,81.52
2023-04-25T05:38:04.570Z,79.43
2023-04-25T05:41:10.766Z,80.81
2023-04-25T05:43:58.871Z,78.52
2023-04-25T05:46:42.198Z,80.63
2023-04-25T05:49:24.897Z,78.53
2023-04-25T05:52:01.176Z,77.79
2023-04-25T05:54:48.604Z,78.78
2023-04-25T05:57:24.267Z,79.00
2023-04-25T05:59:54.439Z,76.98
2023-04-25T06:02:24.485Z,77.21
2023-04-25T06:04:53.566Z,76.72
2023-04-25T06:07:23.873Z,77.14
2023-04-25T06:09:52.040Z,77.21
2023-04-25T06:12:19.879Z,76.24
2023-04-25T06:14:49.455Z,77.50
2023-04-25T06:17:18.666Z,75.22
2023-04-25T06:19:46.368Z,74.99
2023-04-25T06:22:14.499Z,75.19
2023-04-25T06:24:42.808Z,73.40
2023-04-25T06:27:10.798Z,72.87
2023-04-25T06:29:38.755Z,74.22
2023-04-25T06:32:07.272Z,74.59
2023-04-25T06:34:36.570Z,73.33
2023-04-25T06:37:05.057Z,72.68
2023-04-25T06:39:32.986Z,73.15
2023-04-25T06:42:00.804Z,72.63
2023-04-25T06:44:43.558Z,72.22
2023-04-25T06:47:12.678Z,72.79
2023-04-25T06:49:43.939Z,72.05
2023-04-25T06:52:12.638Z,72.12
2023-04-25T06:54:41.000Z,72.89
2023-04-25T06:57:29.106Z,72.05
2023-04-25T07:00:02.406Z,71.94
2023-04-25T07:02:30.737Z,71.99
2023-04-25T07:05:00.951Z,73.91
2023-04-25T07:07:29.259Z,72.97
2023-04-25T07:09:59.268Z,72.38
2023-04-25T07:12:27.994Z,72.95
2023-04-25T07:14:55.862Z,73.88
2023-04-25T07:17:23.923Z,73.52
2023-04-25T07:19:52.383Z,73.46
2023-04-25T07:22:21.599Z,72.25
2023-04-25T07:24:49.903Z,72.20
2023-04-25T07:27:21.225Z,73.09
2023-04-25T07:29:55.378Z,72.85
2023-04-25T07:32:24.771Z,73.12
2023-04-25T07:34:52.844Z,73.34
2023-04-25T07:37:22.080Z,74.31
2023-04-25T07:40:02.654Z,71.08
2023-04-25T07:42:30.793Z,71.34
2023-04-25T07:44:59.126Z,69.99
2023-04-25T07:47:27.020Z,70.02
2023-04-25T07:49:55.211Z,68.92
2023-04-25T07:52:24.561Z,67.64
2023-04-25T07:55:01.398Z,67.98
2023-04-25T07:57:40.182Z,67.85
2023-04-25T08:00:10.540Z,71.53
2023-04-25T08:02:41.715Z,68.79
2023-04-25T08:05:16.388Z,67.73
2023-04-25T08:07:51.725Z,66.84
2023-04-25T08:10:19.906Z,66.55
2023-04-25T08:12:50.072Z,66.56
2023-04-25T08:15:17.921Z,68.15
2023-04-25T08:17:46.494Z,67.28
2023-04-25T08:20:14.746Z,64.13
2023-04-25T08:22:43.195Z,64.77
2023-04-25T08:25:29.720Z,63.74
2023-04-25T08:27:58.215Z,63.21
2023-04-25T08:30:28.005Z,63.69
2023-04-25T08:32:56.064Z,62.96
2023-04-25T08:36:02.793Z,62.63
2023-04-25T08:38:32.573Z,61.14
2023-04-25T08:41:03.126Z,60.46
2023-04-25T08:43:31.677Z,61.05
2023-04-25T08:46:01.790Z,57.51
2023-04-25T08:48:41.831Z,59.57
2023-04-25T08:53:44.116Z,56.00
2023-04-25T08:56:15.200Z,57.07
2023-04-25T08:58:43.165Z,53.55
2023-04-25T09:01:11.349Z,53.12
2023-04-25T09:03:48.219Z,54.16
2023-04-25T09:06:17.227Z,53.85
2023-04-25T09:08:45.440Z,52.51
2023-04-25T09:11:15.359Z,54.55
2023-04-25T09:13:43.416Z,57.00
2023-04-25T09:17:00.543Z,55.66
2023-04-25T09:19:47.225Z,56.56
2023-04-25T09:22:33.500Z,58.26
2023-04-25T09:25:04.809Z,58.18
2023-04-25T09:27:34.071Z,58.89
2023-04-25T09:30:12.358Z,60.21
2023-04-25T09:32:58.695Z,60.32
2023-04-25T09:35:27.706Z,60.83
2023-04-25T09:37:58.098Z,62.51
2023-04-25T09:40:46.365Z,62.27
2023-04-25T09:43:28.794Z,62.08
2023-04-25T09:46:00.498Z,65.14
2023-04-25T09:48:30.875Z,62.85
2023-04-25T09:51:09.817Z,64.01
2023-04-25T09:53:39.754Z,63.64
2023-04-25T09:56:24.453Z,64.09
2023-04-25T09:58:56.580Z,64.91
2023-04-25T10:01:26.186Z,63.08
2023-04-25T10:04:12.376Z,61.54
2023-04-25T10:07:01.946Z,61.24
2023-04-25T10:09:32.899Z,60.89
2023-04-25T10:12:01.868Z,59.65
2023-04-25T10:14:31.736Z,56.94
2023-04-25T10:16:59.987Z,54.85
2023-04-25T10:19:28.473Z,56.68
2023-04-25T10:22:00.371Z,55.39
2023-04-25T10:24:28.973Z,50.53
2023-04-25T10:26:58.436Z,53.26
2023-04-25T10:29:27.270Z,50.63
2023-04-25T10:31:56.889Z,54.22
2023-04-25T10:34:40.919Z,55.23
2023-04-25T10:37:11.313Z,54.55
2023-04-25T10:39:42.145Z,55.77
2023-04-25T10:42:10.399Z,51.28
2023-04-25T10:44:39.780Z,50.14
2023-04-25T10:47:10.514Z,46.22
2023-04-25T10:49:43.141Z,46.55
2023-04-25T10:52:18.701Z,45.21
2023-04-25T10:54:51.149Z,43.22
2023-04-25T10:57:39.015Z,45.88
2023-04-25T11:00:13.599Z,49.95
2023-04-25T11:02:48.028Z,51.21
2023-04-25T11:05:25.711Z,52.96
2023-04-25T11:08:06.334Z,51.13
2023-04-25T11:10:36.395Z,56.70
2023-04-25T11:13:04.646Z,55.38
2023-04-25T11:15:32.501Z,57.67
2023-04-25T11:18:02.371Z,58.81
2023-04-25T11:20:30.610Z,59.37
2023-04-25T11:23:00.990Z,60.60
2023-04-25T11:25:29.756Z,61.45
2023-04-25T11:27:59.347Z,62.99
2023-04-25T11:30:29.736Z,63.27
2023-04-25T11:32:57.624Z,62.89
2023-04-25T11:35:27.335Z,65.51
2023-04-25T11:37:55.123Z,61.19
2023-04-25T11:40:23.024Z,62.65
2023-04-25T11:42:51.424Z,63.16
2023-04-25T11:45:19.996Z,61.62
2023-04-25T11:47:48.064Z,62.47
2023-04-25T11:50:16.316Z,61.48
2023-04-25T11:52:46.706Z,60.91
2023-04-25T11:55:16.686Z,61.74
2023-04-25T11:57:46.098Z,61.72
2023-04-25T12:00:18.086Z,62.14
2023-04-25T12:02:49.027Z,60.65
2023-04-25T12:07:50.060Z,60.80
2023-04-25T12:10:18.548Z,59.58
2023-04-25T12:12:48.667Z,58.57
2023-04-25T12:15:20.213Z,55.50
2023-04-25T12:17:49.221Z,57.50
2023-04-25T12:20:18.359Z,52.66
2023-04-25T12:22:48.286Z,52.84
2023-04-25T12:25:36.829Z,49.06
2023-04-25T12:28:20.490Z,50.89
2023-04-25T12:30:58.563Z,51.59
2023-04-25T12:33:27.913Z,48.35
2023-04-25T12:35:55.962Z,50.83
2023-04-25T12:38:30.294Z,53.82
2023-04-25T12:41:00.219Z,53.82
2023-04-25T12:43:28.450Z,54.22
2023-04-25T12:45:57.832Z,56.68
2023-04-25T12:48:26.229Z,54.39
2023-04-25T12:50:54.340Z,55.12
2023-04-25T12:53:23.946Z,55.92
2023-04-25T12:55:52.493Z,54.71
2023-04-25T12:58:22.006Z,52.90
2023-04-25T13:00:49.987Z,56.29
2023-04-25T13:03:19.036Z,53.34
2023-04-25T13:05:49.252Z,53.65
2023-04-25T13:08:17.068Z,49.31
2023-04-25T13:10:45.021Z,49.31
2023-04-25T13:13:12.836Z,47.81
2023-04-25T13:15:42.015Z,47.45
2023-04-25T13:18:09.817Z,49.19
2023-04-25T13:20:37.632Z,50.70
2023-04-25T13:23:05.510Z,52.11
2023-04-25T13:25:33.362Z,50.27
2023-04-25T13:28:01.144Z,52.39
2023-04-25T13:30:28.985Z,52.57
2023-04-25T13:32:58.346Z,55.16
2023-04-25T13:35:26.700Z,59.19
2023-04-25T13:37:54.544Z,60.40
2023-04-25T13:40:24.034Z,61.38
2023-04-25T13:42:53.189Z,62.18
2023-04-25T13:45:21.403Z,61.20
2023-04-25T13:47:49.548Z,62.20
2023-04-25T13:50:19.185Z,62.61
2023-04-25T13:52:47.059Z,63.46
2023-04-25T13:55:14.875Z,62.16
2023-04-25T13:57:42.886Z,61.34
2023-04-25T14:00:11.937Z,60.75
2023-04-25T14:02:40.455Z,58.50
2023-04-25T14:05:10.186Z,60.69
2023-04-25T14:07:39.462Z,60.27
2023-04-25T14:10:08.244Z,60.33
2023-04-25T14:12:36.190Z,60.83
2023-04-25T14:15:04.686Z,59.64
2023-04-25T14:17:32.613Z,60.17
2023-04-25T14:20:00.468Z,59.92
2023-04-25T14:22:28.321Z,59.69
2023-04-25T14:24:59.017Z,60.83
2023-04-25T14:27:29.124Z,61.02
2023-04-25T14:29:57.380Z,61.13
2023-04-25T14:32:25.183Z,62.48
2023-04-25T14:34:53.023Z,62.66
2023-04-25T14:37:20.828Z,61.84
2023-04-25T14:39:48.663Z,61.57
2023-04-25T14:42:17.891Z,61.59
2023-04-25T14:44:46.027Z,61.81
2023-04-25T14:47:13.862Z,62.85
2023-04-25T14:49:41.913Z,61.99
2023-04-25T14:52:09.727Z,62.01
2023-04-25T14:54:37.580Z,61.27
2023-04-25T14:57:05.473Z,61.59
2023-04-25T14:59:34.602Z,60.35
2023-04-25T15:02:02.444Z,61.10
2023-04-25T15:04:30.954Z,61.20
2023-04-25T15:06:59.997Z,61.26
2023-04-25T15:09:29.651Z,61.11
2023-04-25T15:11:57.758Z,60.54
2023-04-25T15:14:25.580Z,60.93
2023-04-25T15:16:54.825Z,62.33
2023-04-25T15:19:22.588Z,61.19
2023-04-25T15:21:50.730Z,59.32
2023-04-25T15:24:19.018Z,59.31
2023-04-25T15:26:47.396Z,60.78
2023-04-25T15:29:15.408Z,60.70
2023-04-25T15:31:43.312Z,58.32
2023-04-25T15:34:12.891Z,57.99
2023-04-25T15:36:40.721Z,58.98
2023-04-25T15:39:08.596Z,56.33
2023-04-25T15:41:38.087Z,58.22
2023-04-25T15:44:07.899Z,58.11
2023-04-25T15:46:35.823Z,57.12
2023-04-25T15:49:03.754Z,58.79
2023-04-25T15:51:33.615Z,57.58
2023-04-25T15:54:04.103Z,58.61
2023-04-25T15:56:32.019Z,57.35
2023-04-25T15:58:59.845Z,58.21
2023-04-25T16:01:30.746Z,57.81
2023-04-25T16:03:59.539Z,56.26
2023-04-25T16:06:28.478Z,57.31
2023-04-25T16:08:58.068Z,56.72
2023-04-25T16:11:25.999Z,59.29
2023-04-25T16:13:53.945Z,58.16
2023-04-25T16:16:22.029Z,60.87
2023-04-25T16:18:50.104Z,57.36
2023-04-25T16:21:17.927Z,54.75
2023-04-25T16:23:45.740Z,54.31
2023-04-25T16:26:14.944Z,54.27
2023-04-25T16:28:42.903Z,54.14
2023-04-25T16:31:10.818Z,55.29
2023-04-25T16:33:38.656Z,54.82
2023-04-25T16:36:07.602Z,55.98
2023-04-25T16:38:35.621Z,55.21
2023-04-25T16:41:03.437Z,57.52
2023-04-25T16:43:32.835Z,56.72
2023-04-25T16:46:00.590Z,56.68
2023-04-25T16:48:28.377Z,55.98
2023-04-25T16:50:56.671Z,57.86
2023-04-25T16:53:24.556Z,57.69
2023-04-25T16:55:52.485Z,58.65
2023-04-25T16:58:20.826Z,59.63
2023-04-25T17:00:50.024Z,60.16
2023-04-25T17:03:18.063Z,61.02
2023-04-25T17:05:46.055Z,60.98
2023-04-25T17:08:13.961Z,59.74
2023-04-25T17:10:41.757Z,59.59
2023-04-25T17:13:09.671Z,59.33
2023-04-25T17:15:37.709Z,58.75
2023-04-25T17:18:07.034Z,57.75
2023-04-25T17:20:35.313Z,58.35
2023-04-25T17:23:03.212Z,58.59
2023-04-25T17:25:32.893Z,58.49
2023-04-25T17:28:00.752Z,59.63
2023-04-25T17:30:28.631Z,62.60
2023-04-25T17:32:56.573Z,63.34
2023-04-25T17:35:26.092Z,64.32
2023-04-25T17:37:53.921Z,65.02
2023-04-25T17:40:21.836Z,65.85
2023-04-25T17:42:50.169Z,65.49
2023-04-25T17:45:18.556Z,65.69
2023-04-25T17:47:46.738Z,65.39
2023-04-25T17:50:16.684Z,65.82
2023-04-25T17:52:48.179Z,66.42
2023-04-25T17:55:16.065Z,65.51
2023-04-25T17:57:43.904Z,65.85
2023-04-25T18:00:12.987Z,65.91
2023-04-25T18:02:41.232Z,65.45
2023-04-25T18:05:11.112Z,64.96
2023-04-25T18:07:39.186Z,65.79
2023-04-25T18:10:11.696Z,66.20
2023-04-25T18:12:39.567Z,64.39
2023-04-25T18:15:09.217Z,64.63
2023-04-25T18:17:40.374Z,64.43
2023-04-25T18:20:11.878Z,64.52
2023-04-25T18:22:40.308Z,64.69
2023-04-25T18:25:11.157Z,65.21
2023-04-25T18:27:39.764Z,65.45
2023-04-25T18:30:09.664Z,66.17
2023-04-25T18:32:37.564Z,66.24
2023-04-25T18:35:06.025Z,66.76
2023-04-25T18:37:33.857Z,67.05
2023-04-25T18:40:06.123Z,67.48
2023-04-25T18:42:35.496Z,68.19
2023-04-25T18:45:03.848Z,68.59
2023-04-25T18:47:31.719Z,68.82
2023-04-25T18:49:59.741Z,68.56
2023-04-25T18:52:27.627Z,68.77
2023-04-25T18:54:55.425Z,68.96
2023-04-25T18:57:23.288Z,69.16
2023-04-25T18:59:52.435Z,69.30
2023-04-25T19:02:20.531Z,69.29
2023-04-25T19:04:48.447Z,69.59
2023-04-25T19:07:16.411Z,69.73
2023-04-25T19:09:44.230Z,69.87
2023-04-25T19:12:12.064Z,69.98
2023-04-25T19:14:39.904Z,69.64
2023-04-25T19:17:09.138Z,69.66
2023-04-25T19:19:36.995Z,70.10
2023-04-25T19:22:05.049Z,70.21
2023-04-25T19:24:34.460Z,70.38
2023-04-25T19:27:02.908Z,70.78
2023-04-25T19:29:32.546Z,71.59
2023-04-25T19:32:03.026Z,71.14
2023-04-25T19:34:32.228Z,71.51
2023-04-25T19:37:00.032Z,71.40
2023-04-25T19:39:27.876Z,71.77
2023-04-25T19:41:56.686Z,72.20
2023-04-25T19:44:24.978Z,70.49
2023-04-25T19:46:52.875Z,70.39
2023-04-25T19:49:21.259Z,69.99
2023-04-25T19:51:51.045Z,68.83
2023-04-25T19:54:18.869Z,68.94
2023-04-25T19:56:46.876Z,68.78
2023-04-25T19:59:14.705Z,68.40
2023-04-25T20:01:42.627Z,68.49
2023-04-25T20:04:10.616Z,68.68
2023-04-25T20:06:38.512Z,68.75
2023-04-25T20:09:09.472Z,68.95
2023-04-25T20:11:37.619Z,69.21
2023-04-25T20:14:05.990Z,69.24
2023-04-25T20:16:33.839Z,69.39
2023-04-25T20:19:02.356Z,69.64
2023-04-25T20:21:33.040Z,70.23
2023-04-25T20:24:01.420Z,70.41
2023-04-25T20:26:33.804Z,70.57
2023-04-25T20:29:01.974Z,70.68
2023-04-25T20:31:31.165Z,70.51
2023-04-25T20:34:00.748Z,70.56
2023-04-25T20:36:29.711Z,70.69
2023-04-25T20:38:58.015Z,70.47
2023-04-25T20:41:25.958Z,69.99
2023-04-25T20:43:55.576Z,69.93
2023-04-25T20:46:23.546Z,69.89
2023-04-25T20:48:52.718Z,70.12
2023-04-25T20:51:20.783Z,70.84
2023-04-25T20:53:48.793Z,70.57
2023-04-25T20:56:17.018Z,71.12
2023-04-25T20:58:44.806Z,71.42
2023-04-25T21:01:14.108Z,71.58
2023-04-25T21:03:42.883Z,71.89
2023-04-25T21:06:10.990Z,72.03
2023-04-25T21:08:39.006Z,72.29
2023-04-25T21:11:06.911Z,72.30
2023-04-25T21:13:34.826Z,72.42
2023-04-25T21:16:02.996Z,72.52
2023-04-25T21:18:32.984Z,72.82
2023-04-25T21:21:01.220Z,73.17
2023-04-25T21:23:29.028Z,73.07
2023-04-25T21:25:56.866Z,73.15
2023-04-25T21:28:24.786Z,73.17
2023-04-25T21:30:52.732Z,73.16
2023-04-25T21:33:20.689Z,73.30
2023-04-25T21:35:49.863Z,73.78
2023-04-25T21:38:17.673Z,74.25
2023-04-25T21:40:45.878Z,73.76
2023-04-25T21:43:13.772Z,74.26
2023-04-25T21:46:05.667Z,74.27
2023-04-25T21:48:29.629Z,74.80
2023-04-25T21:50:59.100Z,75.18
2023-04-25T21:53:27.498Z,75.43
2023-04-25T21:55:55.265Z,75.39
2023-04-25T21:58:23.054Z,75.53
2023-04-25T22:00:50.958Z,75.93
2023-04-25T22:03:20.268Z,75.60
2023-04-25T22:05:48.400Z,76.06
2023-04-25T22:08:17.627Z,75.91
2023-04-25T22:10:45.603Z,75.59
2023-04-25T22:13:13.432Z,75.01
2023-04-25T22:15:41.534Z,75.15
2023-04-25T22:18:10.283Z,75.23
2023-04-25T22:20:38.856Z,74.58
2023-04-25T22:23:06.690Z,75.11
2023-04-25T22:25:35.976Z,75.24
2023-04-25T22:28:03.862Z,75.21
2023-04-25T22:30:32.165Z,75.65
2023-04-25T22:33:00.261Z,75.90
2023-04-25T22:35:28.289Z,75.88
2023-04-25T22:37:56.250Z,76.41
2023-04-25T22:40:24.170Z,76.56
2023-04-25T22:42:53.615Z,76.87
2023-04-25T22:45:21.804Z,77.17
2023-04-25T22:47:49.695Z,77.27
2023-04-25T22:50:17.921Z,77.55
2023-04-25T22:52:47.908Z,77.89
2023-04-25T22:55:15.814Z,78.35
2023-04-25T22:57:43.611Z,78.16
2023-04-25T23:00:19.957Z,78.45
2023-04-25T23:02:48.572Z,78.83
2023-04-25T23:05:16.835Z,78.84
2023-04-25T23:07:45.533Z,78.97
2023-04-25T23:10:13.990Z,79.38
2023-04-25T23:12:41.897Z,79.38
2023-04-25T23:15:13.061Z,79.53
2023-04-25T23:17:41.948Z,79.93
2023-04-25T23:20:12.083Z,79.97
2023-04-25T23:22:40.135Z,80.09
2023-04-25T23:25:09.866Z,80.69
2023-04-25T23:27:38.113Z,81.03
2023-04-25T23:30:08.706Z,81.53
2023-04-25T23:32:38.037Z,81.48
2023-04-25T23:35:06.710Z,81.87
2023-04-25T23:37:34.864Z,82.02
2023-04-25T23:40:06.264Z,82.18
2023-04-25T23:42:34.178Z,82.44
2023-04-25T23:45:02.394Z,82.45
2023-04-25T23:47:31.158Z,82.80
2023-04-25T23:50:01.284Z,83.11
2023-04-25T23:52:29.383Z,83.27
2023-04-25T23:54:58.124Z,83.57
2023-04-25T23:57:26.054Z,83.72
2023-04-25T23:59:54.015Z,84.12
